sensor_id;sensor_type;location;lat;lon;timestamp;temperature;humidity
22666;DHT22;11499;49.486;11.104;2023-03-14T00:01:16;8.90;99.90
22666;DHT22;11499;49.486;11.104;2023-03-14T00:06:18;8.90;99.90
22666;DHT22;11499;49.486;11.104;2023-03-14T00:08:44;9.00;99.90
22666;DHT22;11499;49.486;11.104;2023-03-14T00:11:16;9.00;99.90
22666;DHT22;11499;49.486;11.104;2023-03-14T00:13:41;9.00;99.90
22666;DHT22;11499;49.486;11.104;2023-03-14T00:16:10;9.00;99.90
22666;DHT22;11499;49.486;11.104;2023-03-14T00:18:36;8.90;99.90
22666;DHT22;11499;49.486;11.104;2023-03-14T00:21:03;9.00;99.90
22666;DHT22;11499;49.486;11.104;2023-03-14T00:23:31;9.00;99.90
22666;DHT22;11499;49.486;11.104;2023-03-14T00:26:05;9.00;99.90
22666;DHT22;11499;49.486;11.104;2023-03-14T00:28:32;9.00;99.90
22666;DHT22;11499;49.486;11.104;2023-03-14T00:33:41;9.00;99.90
22666;DHT22;11499;49.486;11.104;2023-03-14T00:36:12;9.10;99.90
22666;DHT22;11499;49.486;11.104;2023-03-14T00:38:39;9.00;99.90
22666;DHT22;11499;49.486;11.104;2023-03-14T00:41:06;9.00;99.90
22666;DHT22;11499;49.486;11.104;2023-03-14T00:43:32;9.00;99.90
22666;DHT22;11499;49.486;11.104;2023-03-14T00:45:58;9.00;99.90
22666;DHT22;11499;49.486;11.104;2023-03-14T00:48:23;9.00;99.90
22666;DHT22;11499;49.486;11.104;2023-03-14T00:50:49;9.00;99.90
22666;DHT22;11499;49.486;11.104;2023-03-14T00:53:15;9.00;99.90
22666;DHT22;11499;49.486;11.104;2023-03-14T00:55:41;9.00;99.90
22666;DHT22;11499;49.486;11.104;2023-03-14T01:00:46;9.00;99.90
22666;DHT22;11499;49.486;11.104;2023-03-14T01:03:13;9.00;99.90
22666;DHT22;11499;49.486;11.104;2023-03-14T01:05:38;9.00;99.90
22666;DHT22;11499;49.486;11.104;2023-03-14T01:08:05;9.00;99.90
22666;DHT22;11499;49.486;11.104;2023-03-14T01:10:32;9.00;99.90
22666;DHT22;11499;49.486;11.104;2023-03-14T01:12:57;9.00;99.90
22666;DHT22;11499;49.486;11.104;2023-03-14T01:15:23;9.00;99.90
22666;DHT22;11499;49.486;11.104;2023-03-14T01:17:48;9.00;99.90
22666;DHT22;11499;49.486;11.104;2023-03-14T01:20:16;9.00;99.90
22666;DHT22;11499;49.486;11.104;2023-03-14T01:22:42;9.00;99.90
22666;DHT22;11499;49.486;11.104;2023-03-14T01:28:09;9.00;99.90
22666;DHT22;11499;49.486;11.104;2023-03-14T01:30:34;9.00;99.90
22666;DHT22;11499;49.486;11.104;2023-03-14T01:33:00;9.00;99.90
22666;DHT22;11499;49.486;11.104;2023-03-14T01:35:25;9.00;99.90
22666;DHT22;11499;49.486;11.104;2023-03-14T01:37:51;9.00;99.90
22666;DHT22;11499;49.486;11.104;2023-03-14T01:40:16;9.00;99.90
22666;DHT22;11499;49.486;11.104;2023-03-14T01:42:53;9.00;99.90
22666;DHT22;11499;49.486;11.104;2023-03-14T01:48:22;8.90;99.90
22666;DHT22;11499;49.486;11.104;2023-03-14T01:50:47;9.00;99.90
22666;DHT22;11499;49.486;11.104;2023-03-14T01:53:13;9.10;99.90
22666;DHT22;11499;49.486;11.104;2023-03-14T01:58:30;9.10;99.90
22666;DHT22;11499;49.486;11.104;2023-03-14T02:00:59;9.20;99.90
22666;DHT22;11499;49.486;11.104;2023-03-14T02:03:27;9.20;99.90
22666;DHT22;11499;49.486;11.104;2023-03-14T02:05:56;9.30;99.90
22666;DHT22;11499;49.486;11.104;2023-03-14T02:08:27;9.30;99.90
22666;DHT22;11499;49.486;11.104;2023-03-14T02:10:53;9.30;99.90
22666;DHT22;11499;49.486;11.104;2023-03-14T02:13:19;9.30;99.90
22666;DHT22;11499;49.486;11.104;2023-03-14T02:15:46;9.30;99.90
22666;DHT22;11499;49.486;11.104;2023-03-14T02:18:12;9.30;99.90
22666;DHT22;11499;49.486;11.104;2023-03-14T02:21:00;9.30;99.90
22666;DHT22;11499;49.486;11.104;2023-03-14T02:26:14;9.30;99.90
22666;DHT22;11499;49.486;11.104;2023-03-14T02:28:41;9.30;99.90
22666;DHT22;11499;49.486;11.104;2023-03-14T02:31:07;9.30;99.90
22666;DHT22;11499;49.486;11.104;2023-03-14T02:33:35;9.30;99.90
22666;DHT22;11499;49.486;11.104;2023-03-14T02:36:05;9.30;99.90
22666;DHT22;11499;49.486;11.104;2023-03-14T02:41:07;9.30;99.90
22666;DHT22;11499;49.486;11.104;2023-03-14T02:43:33;9.30;99.90
22666;DHT22;11499;49.486;11.104;2023-03-14T02:46:00;9.30;99.90
22666;DHT22;11499;49.486;11.104;2023-03-14T02:48:29;9.30;99.90
22666;DHT22;11499;49.486;11.104;2023-03-14T02:53:37;9.20;99.90
22666;DHT22;11499;49.486;11.104;2023-03-14T02:56:04;9.20;99.90
22666;DHT22;11499;49.486;11.104;2023-03-14T02:58:30;9.20;99.90
22666;DHT22;11499;49.486;11.104;2023-03-14T03:00:56;9.20;99.90
22666;DHT22;11499;49.486;11.104;2023-03-14T03:03:21;9.20;99.90
22666;DHT22;11499;49.486;11.104;2023-03-14T03:05:51;9.20;99.90
22666;DHT22;11499;49.486;11.104;2023-03-14T03:08:19;9.10;99.90
22666;DHT22;11499;49.486;11.104;2023-03-14T03:10:45;9.10;99.90
22666;DHT22;11499;49.486;11.104;2023-03-14T03:13:11;9.10;99.90
22666;DHT22;11499;49.486;11.104;2023-03-14T03:15:37;9.10;99.90
22666;DHT22;11499;49.486;11.104;2023-03-14T03:18:02;9.00;99.90
22666;DHT22;11499;49.486;11.104;2023-03-14T03:20:28;9.00;99.90
22666;DHT22;11499;49.486;11.104;2023-03-14T03:25:24;9.00;99.90
22666;DHT22;11499;49.486;11.104;2023-03-14T03:27:49;9.00;99.90
22666;DHT22;11499;49.486;11.104;2023-03-14T03:30:15;9.00;99.90
22666;DHT22;11499;49.486;11.104;2023-03-14T03:32:41;9.00;99.90
22666;DHT22;11499;49.486;11.104;2023-03-14T03:35:07;9.00;99.90
22666;DHT22;11499;49.486;11.104;2023-03-14T03:37:33;9.00;99.90
22666;DHT22;11499;49.486;11.104;2023-03-14T03:39:59;9.00;99.90
22666;DHT22;11499;49.486;11.104;2023-03-14T03:42:27;9.00;99.90
22666;DHT22;11499;49.486;11.104;2023-03-14T03:44:52;9.00;99.90
22666;DHT22;11499;49.486;11.104;2023-03-14T03:47:18;9.00;99.90
22666;DHT22;11499;49.486;11.104;2023-03-14T03:49:44;9.00;99.90
22666;DHT22;11499;49.486;11.104;2023-03-14T03:54:07;9.10;99.90
22666;DHT22;11499;49.486;11.104;2023-03-14T03:56:32;9.10;99.90
22666;DHT22;11499;49.486;11.104;2023-03-14T03:58:58;9.10;99.90
22666;DHT22;11499;49.486;11.104;2023-03-14T04:01:24;9.10;99.90
22666;DHT22;11499;49.486;11.104;2023-03-14T04:03:49;9.10;99.90
22666;DHT22;11499;49.486;11.104;2023-03-14T04:06:15;9.10;99.90
22666;DHT22;11499;49.486;11.104;2023-03-14T04:08:40;9.10;99.90
22666;DHT22;11499;49.486;11.104;2023-03-14T04:11:07;9.10;99.90
22666;DHT22;11499;49.486;11.104;2023-03-14T04:13:32;9.00;99.90
22666;DHT22;11499;49.486;11.104;2023-03-14T04:15:58;9.00;99.90
22666;DHT22;11499;49.486;11.104;2023-03-14T04:21:33;9.00;99.90
22666;DHT22;11499;49.486;11.104;2023-03-14T04:23:58;9.00;99.90
22666;DHT22;11499;49.486;11.104;2023-03-14T04:26:24;8.90;99.90
22666;DHT22;11499;49.486;11.104;2023-03-14T04:28:49;8.90;99.90
22666;DHT22;11499;49.486;11.104;2023-03-14T04:31:17;8.90;99.90
22666;DHT22;11499;49.486;11.104;2023-03-14T04:33:44;8.90;99.90
22666;DHT22;11499;49.486;11.104;2023-03-14T04:36:10;8.90;99.90
22666;DHT22;11499;49.486;11.104;2023-03-14T04:38:36;8.80;99.90
22666;DHT22;11499;49.486;11.104;2023-03-14T04:41:01;8.90;99.90
22666;DHT22;11499;49.486;11.104;2023-03-14T04:43:27;8.90;99.90
22666;DHT22;11499;49.486;11.104;2023-03-14T04:48:36;8.90;99.90
22666;DHT22;11499;49.486;11.104;2023-03-14T04:51:03;8.90;99.90
22666;DHT22;11499;49.486;11.104;2023-03-14T04:53:29;8.90;99.90
22666;DHT22;11499;49.486;11.104;2023-03-14T04:55:55;8.90;99.90
22666;DHT22;11499;49.486;11.104;2023-03-14T04:58:22;8.90;99.90
22666;DHT22;11499;49.486;11.104;2023-03-14T05:00:47;8.90;99.90
22666;DHT22;11499;49.486;11.104;2023-03-14T05:03:17;8.90;99.90
22666;DHT22;11499;49.486;11.104;2023-03-14T05:05:43;8.90;99.90
22666;DHT22;11499;49.486;11.104;2023-03-14T05:08:09;8.90;99.90
22666;DHT22;11499;49.486;11.104;2023-03-14T05:10:34;8.90;99.90
22666;DHT22;11499;49.486;11.104;2023-03-14T05:15:39;8.90;99.90
22666;DHT22;11499;49.486;11.104;2023-03-14T05:18:04;8.90;99.90
22666;DHT22;11499;49.486;11.104;2023-03-14T05:20:30;8.90;99.90
22666;DHT22;11499;49.486;11.104;2023-03-14T05:22:55;8.90;99.90
22666;DHT22;11499;49.486;11.104;2023-03-14T05:25:21;8.90;99.90
22666;DHT22;11499;49.486;11.104;2023-03-14T05:27:46;8.80;99.90
22666;DHT22;11499;49.486;11.104;2023-03-14T05:30:12;8.80;99.90
22666;DHT22;11499;49.486;11.104;2023-03-14T05:32:38;8.80;99.90
22666;DHT22;11499;49.486;11.104;2023-03-14T05:35:03;8.80;99.90
22666;DHT22;11499;49.486;11.104;2023-03-14T05:37:29;8.80;99.90
22666;DHT22;11499;49.486;11.104;2023-03-14T05:42:48;8.80;99.90
22666;DHT22;11499;49.486;11.104;2023-03-14T05:45:14;8.90;99.90
22666;DHT22;11499;49.486;11.104;2023-03-14T05:47:39;8.90;99.90
22666;DHT22;11499;49.486;11.104;2023-03-14T05:50:05;8.90;99.90
22666;DHT22;11499;49.486;11.104;2023-03-14T05:52:30;8.90;99.90
22666;DHT22;11499;49.486;11.104;2023-03-14T05:54:56;8.80;99.90
22666;DHT22;11499;49.486;11.104;2023-03-14T05:57:21;8.90;99.90
22666;DHT22;11499;49.486;11.104;2023-03-14T05:59:47;9.00;99.90
22666;DHT22;11499;49.486;11.104;2023-03-14T06:02:12;9.00;99.90
22666;DHT22;11499;49.486;11.104;2023-03-14T06:04:38;9.00;99.90
22666;DHT22;11499;49.486;11.104;2023-03-14T06:10:18;9.10;99.90
22666;DHT22;11499;49.486;11.104;2023-03-14T06:12:44;9.10;99.90
22666;DHT22;11499;49.486;11.104;2023-03-14T06:15:10;9.20;99.90
22666;DHT22;11499;49.486;11.104;2023-03-14T06:17:35;9.20;99.90
22666;DHT22;11499;49.486;11.104;2023-03-14T06:20:01;9.20;99.90
22666;DHT22;11499;49.486;11.104;2023-03-14T06:22:26;9.30;99.90
22666;DHT22;11499;49.486;11.104;2023-03-14T06:24:52;9.30;99.90
22666;DHT22;11499;49.486;11.104;2023-03-14T06:27:17;9.40;99.90
22666;DHT22;11499;49.486;11.104;2023-03-14T06:29:43;9.40;99.90
22666;DHT22;11499;49.486;11.104;2023-03-14T06:32:08;9.50;99.90
22666;DHT22;11499;49.486;11.104;2023-03-14T06:36:11;9.50;99.90
22666;DHT22;11499;49.486;11.104;2023-03-14T06:38:36;9.70;99.90
22666;DHT22;11499;49.486;11.104;2023-03-14T06:41:06;10.00;99.90
22666;DHT22;11499;49.486;11.104;2023-03-14T06:43:32;10.10;99.90
22666;DHT22;11499;49.486;11.104;2023-03-14T06:45:58;10.10;99.90
22666;DHT22;11499;49.486;11.104;2023-03-14T06:48:23;10.10;99.90
22666;DHT22;11499;49.486;11.104;2023-03-14T06:50:49;10.10;99.90
22666;DHT22;11499;49.486;11.104;2023-03-14T06:53:14;10.20;99.90
22666;DHT22;11499;49.486;11.104;2023-03-14T06:55:40;10.20;99.90
22666;DHT22;11499;49.486;11.104;2023-03-14T06:58:06;10.20;99.90
22666;DHT22;11499;49.486;11.104;2023-03-14T07:03:13;10.30;99.90
22666;DHT22;11499;49.486;11.104;2023-03-14T07:05:39;10.30;99.90
22666;DHT22;11499;49.486;11.104;2023-03-14T07:08:06;10.40;99.90
22666;DHT22;11499;49.486;11.104;2023-03-14T07:10:31;10.50;99.90
22666;DHT22;11499;49.486;11.104;2023-03-14T07:12:57;10.50;99.90
22666;DHT22;11499;49.486;11.104;2023-03-14T07:15:22;10.60;99.90
22666;DHT22;11499;49.486;11.104;2023-03-14T07:17:48;10.70;99.90
22666;DHT22;11499;49.486;11.104;2023-03-14T07:20:13;10.80;99.90
22666;DHT22;11499;49.486;11.104;2023-03-14T07:22:39;10.80;99.90
22666;DHT22;11499;49.486;11.104;2023-03-14T07:25:05;10.90;99.90
22666;DHT22;11499;49.486;11.104;2023-03-14T07:30:07;10.90;99.90
22666;DHT22;11499;49.486;11.104;2023-03-14T07:32:33;11.00;99.90
22666;DHT22;11499;49.486;11.104;2023-03-14T07:34:58;11.10;99.90
22666;DHT22;11499;49.486;11.104;2023-03-14T07:37:24;11.20;99.90
22666;DHT22;11499;49.486;11.104;2023-03-14T07:39:49;11.30;99.90
22666;DHT22;11499;49.486;11.104;2023-03-14T07:42:15;11.30;99.90
22666;DHT22;11499;49.486;11.104;2023-03-14T07:44:41;11.30;99.90
22666;DHT22;11499;49.486;11.104;2023-03-14T07:47:06;11.30;99.90
22666;DHT22;11499;49.486;11.104;2023-03-14T07:49:32;11.40;99.90
22666;DHT22;11499;49.486;11.104;2023-03-14T07:51:57;11.50;99.90
22666;DHT22;11499;49.486;11.104;2023-03-14T07:56:52;11.60;99.90
22666;DHT22;11499;49.486;11.104;2023-03-14T07:59:18;11.80;99.90
22666;DHT22;11499;49.486;11.104;2023-03-14T08:01:44;11.80;99.90
22666;DHT22;11499;49.486;11.104;2023-03-14T08:04:09;11.70;99.90
22666;DHT22;11499;49.486;11.104;2023-03-14T08:06:36;11.70;99.90
22666;DHT22;11499;49.486;11.104;2023-03-14T08:09:03;11.70;99.90
22666;DHT22;11499;49.486;11.104;2023-03-14T08:11:28;11.70;99.90
22666;DHT22;11499;49.486;11.104;2023-03-14T08:13:54;11.80;99.90
22666;DHT22;11499;49.486;11.104;2023-03-14T08:16:19;11.70;99.90
22666;DHT22;11499;49.486;11.104;2023-03-14T08:18:45;11.70;99.90
22666;DHT22;11499;49.486;11.104;2023-03-14T08:23:14;11.80;99.90
22666;DHT22;11499;49.486;11.104;2023-03-14T08:25:40;12.30;99.90
22666;DHT22;11499;49.486;11.104;2023-03-14T08:28:05;12.30;99.90
22666;DHT22;11499;49.486;11.104;2023-03-14T08:30:31;12.60;99.90
22666;DHT22;11499;49.486;11.104;2023-03-14T08:32:57;12.50;99.90
22666;DHT22;11499;49.486;11.104;2023-03-14T08:35:24;12.70;99.90
22666;DHT22;11499;49.486;11.104;2023-03-14T08:37:50;12.90;99.90
22666;DHT22;11499;49.486;11.104;2023-03-14T08:40:17;12.90;99.90
22666;DHT22;11499;49.486;11.104;2023-03-14T08:42:43;13.00;99.90
22666;DHT22;11499;49.486;11.104;2023-03-14T08:45:11;13.40;99.90
22666;DHT22;11499;49.486;11.104;2023-03-14T08:47:37;13.70;99.90
22666;DHT22;11499;49.486;11.104;2023-03-14T08:52:45;13.90;99.90
22666;DHT22;11499;49.486;11.104;2023-03-14T08:55:11;14.10;99.90
22666;DHT22;11499;49.486;11.104;2023-03-14T08:57:37;14.40;99.90
22666;DHT22;11499;49.486;11.104;2023-03-14T09:00:04;14.70;99.90
22666;DHT22;11499;49.486;11.104;2023-03-14T09:02:39;14.90;99.90
22666;DHT22;11499;49.486;11.104;2023-03-14T09:05:05;15.10;99.90
22666;DHT22;11499;49.486;11.104;2023-03-14T09:07:31;14.90;99.90
22666;DHT22;11499;49.486;11.104;2023-03-14T09:09:56;14.90;99.90
22666;DHT22;11499;49.486;11.104;2023-03-14T09:12:22;15.00;99.90
22666;DHT22;11499;49.486;11.104;2023-03-14T09:14:47;15.10;99.90
22666;DHT22;11499;49.486;11.104;2023-03-14T09:17:13;15.20;99.90
22666;DHT22;11499;49.486;11.104;2023-03-14T09:22:27;15.50;99.90
22666;DHT22;11499;49.486;11.104;2023-03-14T09:24:53;15.80;99.90
22666;DHT22;11499;49.486;11.104;2023-03-14T09:27:18;16.20;99.50
22666;DHT22;11499;49.486;11.104;2023-03-14T09:29:44;16.30;98.30
22666;DHT22;11499;49.486;11.104;2023-03-14T09:32:09;16.40;98.60
22666;DHT22;11499;49.486;11.104;2023-03-14T09:34:35;16.70;97.90
22666;DHT22;11499;49.486;11.104;2023-03-14T09:37:00;16.60;97.60
22666;DHT22;11499;49.486;11.104;2023-03-14T09:39:26;16.90;97.30
22666;DHT22;11499;49.486;11.104;2023-03-14T09:41:54;16.80;96.10
22666;DHT22;11499;49.486;11.104;2023-03-14T09:44:25;16.60;96.30
22666;DHT22;11499;49.486;11.104;2023-03-14T09:49:41;16.60;96.60
22666;DHT22;11499;49.486;11.104;2023-03-14T09:52:20;16.10;96.10
22666;DHT22;11499;49.486;11.104;2023-03-14T09:55:11;15.80;96.20
22666;DHT22;11499;49.486;11.104;2023-03-14T09:57:39;15.60;96.60
22666;DHT22;11499;49.486;11.104;2023-03-14T10:00:15;15.50;96.70
22666;DHT22;11499;49.486;11.104;2023-03-14T10:02:50;15.40;96.60
22666;DHT22;11499;49.486;11.104;2023-03-14T10:05:18;15.20;97.10
22666;DHT22;11499;49.486;11.104;2023-03-14T10:07:44;15.10;97.20
22666;DHT22;11499;49.486;11.104;2023-03-14T10:10:19;14.70;97.00
22666;DHT22;11499;49.486;11.104;2023-03-14T10:12:47;14.90;97.10
22666;DHT22;11499;49.486;11.104;2023-03-14T10:15:14;14.80;96.60
22666;DHT22;11499;49.486;11.104;2023-03-14T10:20:06;15.00;97.10
22666;DHT22;11499;49.486;11.104;2023-03-14T10:22:36;15.40;96.70
22666;DHT22;11499;49.486;11.104;2023-03-14T10:25:04;15.50;96.30
22666;DHT22;11499;49.486;11.104;2023-03-14T10:27:32;15.60;96.40
22666;DHT22;11499;49.486;11.104;2023-03-14T10:30:00;15.30;96.30
22666;DHT22;11499;49.486;11.104;2023-03-14T10:32:33;15.40;96.40
22666;DHT22;11499;49.486;11.104;2023-03-14T10:35:11;15.10;96.50
22666;DHT22;11499;49.486;11.104;2023-03-14T10:38:00;15.00;96.70
22666;DHT22;11499;49.486;11.104;2023-03-14T10:40:30;15.10;96.60
22666;DHT22;11499;49.486;11.104;2023-03-14T10:45:52;15.20;96.20
22666;DHT22;11499;49.486;11.104;2023-03-14T10:54:00;14.20;96.10
22666;DHT22;11499;49.486;11.104;2023-03-14T10:56:33;14.10;96.40
22666;DHT22;11499;49.486;11.104;2023-03-14T10:58:59;13.80;96.00
22666;DHT22;11499;49.486;11.104;2023-03-14T11:07:29;12.90;98.00
22666;DHT22;11499;49.486;11.104;2023-03-14T11:26:37;13.30;99.80
22666;DHT22;11499;49.486;11.104;2023-03-14T11:31:44;13.20;99.10
22666;DHT22;11499;49.486;11.104;2023-03-14T11:34:29;12.90;99.90
22666;DHT22;11499;49.486;11.104;2023-03-14T11:37:01;13.00;99.90
22666;DHT22;11499;49.486;11.104;2023-03-14T11:42:03;13.10;99.90
22666;DHT22;11499;49.486;11.104;2023-03-14T11:44:39;13.80;99.90
22666;DHT22;11499;49.486;11.104;2023-03-14T11:50:15;13.80;99.90
22666;DHT22;11499;49.486;11.104;2023-03-14T11:53:04;13.70;99.90
22666;DHT22;11499;49.486;11.104;2023-03-14T11:55:33;14.10;99.90
22666;DHT22;11499;49.486;11.104;2023-03-14T12:00:38;15.30;99.30
22666;DHT22;11499;49.486;11.104;2023-03-14T12:10:49;16.50;96.90
22666;DHT22;11499;49.486;11.104;2023-03-14T12:13:17;17.00;96.70
22666;DHT22;11499;49.486;11.104;2023-03-14T12:15:55;17.10;96.10
22666;DHT22;11499;49.486;11.104;2023-03-14T12:18:30;17.20;95.30
22666;DHT22;11499;49.486;11.104;2023-03-14T12:21:02;16.90;95.70
22666;DHT22;11499;49.486;11.104;2023-03-14T12:23:43;15.80;95.40
22666;DHT22;11499;49.486;11.104;2023-03-14T12:26:17;15.80;95.70
22666;DHT22;11499;49.486;11.104;2023-03-14T12:28:49;15.60;95.10
22666;DHT22;11499;49.486;11.104;2023-03-14T12:34:39;14.90;95.50
22666;DHT22;11499;49.486;11.104;2023-03-14T12:37:23;14.00;94.70
22666;DHT22;11499;49.486;11.104;2023-03-14T12:45:22;14.60;94.00
22666;DHT22;11499;49.486;11.104;2023-03-14T12:50:46;14.40;94.00
22666;DHT22;11499;49.486;11.104;2023-03-14T12:56:09;15.10;94.30
22666;DHT22;11499;49.486;11.104;2023-03-14T13:02:36;14.50;94.00
22666;DHT22;11499;49.486;11.104;2023-03-14T13:05:13;13.90;94.30
22666;DHT22;11499;49.486;11.104;2023-03-14T13:12:56;13.00;98.10
22666;DHT22;11499;49.486;11.104;2023-03-14T13:18:39;12.70;98.00
22666;DHT22;11499;49.486;11.104;2023-03-14T13:21:21;12.50;98.50
22666;DHT22;11499;49.486;11.104;2023-03-14T13:23:59;12.40;98.20
22666;DHT22;11499;49.486;11.104;2023-03-14T13:26:45;12.20;98.60
22666;DHT22;11499;49.486;11.104;2023-03-14T13:31:53;12.00;99.70
22666;DHT22;11499;49.486;11.104;2023-03-14T13:34:20;11.60;99.90
22666;DHT22;11499;49.486;11.104;2023-03-14T13:36:46;11.60;99.90
22666;DHT22;11499;49.486;11.104;2023-03-14T13:39:17;11.40;99.90
22666;DHT22;11499;49.486;11.104;2023-03-14T13:41:44;11.30;99.90
22666;DHT22;11499;49.486;11.104;2023-03-14T13:44:16;11.10;99.90
22666;DHT22;11499;49.486;11.104;2023-03-14T13:46:42;11.10;99.90
22666;DHT22;11499;49.486;11.104;2023-03-14T13:49:16;11.00;99.90
22666;DHT22;11499;49.486;11.104;2023-03-14T13:51:45;10.90;99.90
22666;DHT22;11499;49.486;11.104;2023-03-14T13:54:15;10.80;99.90
22666;DHT22;11499;49.486;11.104;2023-03-14T13:59:24;10.70;99.90
22666;DHT22;11499;49.486;11.104;2023-03-14T14:01:50;10.80;99.90
22666;DHT22;11499;49.486;11.104;2023-03-14T14:04:19;10.80;99.90
22666;DHT22;11499;49.486;11.104;2023-03-14T14:06:49;10.70;99.90
22666;DHT22;11499;49.486;11.104;2023-03-14T14:09:17;10.50;99.90
22666;DHT22;11499;49.486;11.104;2023-03-14T14:12:02;10.60;99.90
22666;DHT22;11499;49.486;11.104;2023-03-14T14:14:36;10.40;99.90
22666;DHT22;11499;49.486;11.104;2023-03-14T14:17:06;10.40;99.90
22666;DHT22;11499;49.486;11.104;2023-03-14T14:19:34;10.30;99.90
22666;DHT22;11499;49.486;11.104;2023-03-14T14:25:01;10.20;99.90
22666;DHT22;11499;49.486;11.104;2023-03-14T14:27:38;10.10;99.90
22666;DHT22;11499;49.486;11.104;2023-03-14T14:30:06;9.90;99.90
22666;DHT22;11499;49.486;11.104;2023-03-14T14:32:50;9.90;99.90
22666;DHT22;11499;49.486;11.104;2023-03-14T14:35:30;9.60;99.90
22666;DHT22;11499;49.486;11.104;2023-03-14T14:37:56;9.50;99.90
22666;DHT22;11499;49.486;11.104;2023-03-14T14:40:25;9.40;99.90
22666;DHT22;11499;49.486;11.104;2023-03-14T14:42:51;9.30;99.90
22666;DHT22;11499;49.486;11.104;2023-03-14T14:45:19;9.40;99.90
22666;DHT22;11499;49.486;11.104;2023-03-14T14:47:54;9.30;99.90
22666;DHT22;11499;49.486;11.104;2023-03-14T14:52:19;9.20;99.90
22666;DHT22;11499;49.486;11.104;2023-03-14T14:55:32;8.90;99.90
22666;DHT22;11499;49.486;11.104;2023-03-14T14:57:37;8.80;99.90
22666;DHT22;11499;49.486;11.104;2023-03-14T15:00:21;8.70;99.90
22666;DHT22;11499;49.486;11.104;2023-03-14T15:02:48;8.70;99.90
22666;DHT22;11499;49.486;11.104;2023-03-14T15:05:17;8.60;99.90
22666;DHT22;11499;49.486;11.104;2023-03-14T15:07:43;8.50;99.90
22666;DHT22;11499;49.486;11.104;2023-03-14T15:10:18;8.40;99.90
22666;DHT22;11499;49.486;11.104;2023-03-14T15:12:44;8.20;99.90
22666;DHT22;11499;49.486;11.104;2023-03-14T15:15:10;7.80;99.90
22666;DHT22;11499;49.486;11.104;2023-03-14T15:20:22;7.60;99.90
22666;DHT22;11499;49.486;11.104;2023-03-14T15:22:49;7.50;99.90
22666;DHT22;11499;49.486;11.104;2023-03-14T15:25:15;7.50;99.90
22666;DHT22;11499;49.486;11.104;2023-03-14T15:27:40;7.50;99.90
22666;DHT22;11499;49.486;11.104;2023-03-14T15:30:12;7.40;99.90
22666;DHT22;11499;49.486;11.104;2023-03-14T15:32:38;7.30;99.90
22666;DHT22;11499;49.486;11.104;2023-03-14T15:35:04;7.20;99.90
22666;DHT22;11499;49.486;11.104;2023-03-14T15:37:29;7.20;99.90
22666;DHT22;11499;49.486;11.104;2023-03-14T15:39:56;7.20;99.90
22666;DHT22;11499;49.486;11.104;2023-03-14T15:42:23;7.20;99.90
22666;DHT22;11499;49.486;11.104;2023-03-14T15:46:10;7.20;99.90
22666;DHT22;11499;49.486;11.104;2023-03-14T15:48:36;7.30;99.90
22666;DHT22;11499;49.486;11.104;2023-03-14T15:51:02;7.30;99.90
22666;DHT22;11499;49.486;11.104;2023-03-14T15:53:27;7.30;99.90
22666;DHT22;11499;49.486;11.104;2023-03-14T15:55:53;7.30;99.90
22666;DHT22;11499;49.486;11.104;2023-03-14T15:58:19;7.30;99.90
22666;DHT22;11499;49.486;11.104;2023-03-14T16:00:45;7.30;99.90
22666;DHT22;11499;49.486;11.104;2023-03-14T16:03:11;7.30;99.90
22666;DHT22;11499;49.486;11.104;2023-03-14T16:05:38;7.30;99.90
22666;DHT22;11499;49.486;11.104;2023-03-14T16:08:04;7.40;99.90
22666;DHT22;11499;49.486;11.104;2023-03-14T16:12:57;7.40;99.90
22666;DHT22;11499;49.486;11.104;2023-03-14T16:15:22;7.60;99.90
22666;DHT22;11499;49.486;11.104;2023-03-14T16:17:52;7.60;99.90
22666;DHT22;11499;49.486;11.104;2023-03-14T16:20:18;7.70;99.90
22666;DHT22;11499;49.486;11.104;2023-03-14T16:22:46;7.80;99.90
22666;DHT22;11499;49.486;11.104;2023-03-14T16:25:13;7.80;99.90
22666;DHT22;11499;49.486;11.104;2023-03-14T16:27:38;7.70;99.90
22666;DHT22;11499;49.486;11.104;2023-03-14T16:30:05;7.70;99.90
22666;DHT22;11499;49.486;11.104;2023-03-14T16:32:31;7.70;99.90
22666;DHT22;11499;49.486;11.104;2023-03-14T16:34:57;7.60;99.90
22666;DHT22;11499;49.486;11.104;2023-03-14T16:38:57;7.50;99.90
22666;DHT22;11499;49.486;11.104;2023-03-14T16:41:23;7.40;99.90
22666;DHT22;11499;49.486;11.104;2023-03-14T16:43:48;7.50;99.90
22666;DHT22;11499;49.486;11.104;2023-03-14T16:46:17;7.50;99.90
22666;DHT22;11499;49.486;11.104;2023-03-14T16:48:43;7.50;99.90
22666;DHT22;11499;49.486;11.104;2023-03-14T16:51:09;7.40;99.90
22666;DHT22;11499;49.486;11.104;2023-03-14T16:53:35;7.50;99.90
22666;DHT22;11499;49.486;11.104;2023-03-14T16:56:00;7.40;99.90
22666;DHT22;11499;49.486;11.104;2023-03-14T17:01:26;7.50;99.90
22666;DHT22;11499;49.486;11.104;2023-03-14T17:03:52;7.50;99.90
22666;DHT22;11499;49.486;11.104;2023-03-14T17:06:21;7.60;99.90
22666;DHT22;11499;49.486;11.104;2023-03-14T17:08:51;7.50;99.90
22666;DHT22;11499;49.486;11.104;2023-03-14T17:11:17;7.50;99.90
22666;DHT22;11499;49.486;11.104;2023-03-14T17:13:42;7.50;99.90
22666;DHT22;11499;49.486;11.104;2023-03-14T17:16:10;7.50;99.90
22666;DHT22;11499;49.486;11.104;2023-03-14T17:18:36;7.50;99.90
22666;DHT22;11499;49.486;11.104;2023-03-14T17:21:02;7.50;99.90
22666;DHT22;11499;49.486;11.104;2023-03-14T17:23:30;7.50;99.90
22666;DHT22;11499;49.486;11.104;2023-03-14T17:25:56;7.50;99.90
22666;DHT22;11499;49.486;11.104;2023-03-14T17:31:14;7.50;99.90
22666;DHT22;11499;49.486;11.104;2023-03-14T17:33:40;7.50;99.90
22666;DHT22;11499;49.486;11.104;2023-03-14T17:36:06;7.50;99.90
22666;DHT22;11499;49.486;11.104;2023-03-14T17:38:35;7.50;99.90
22666;DHT22;11499;49.486;11.104;2023-03-14T17:41:01;7.50;99.90
22666;DHT22;11499;49.486;11.104;2023-03-14T17:43:27;7.50;99.90
22666;DHT22;11499;49.486;11.104;2023-03-14T17:46:01;7.50;99.90
22666;DHT22;11499;49.486;11.104;2023-03-14T17:48:27;7.30;99.90
22666;DHT22;11499;49.486;11.104;2023-03-14T17:50:53;7.00;99.90
22666;DHT22;11499;49.486;11.104;2023-03-14T17:53:18;6.80;99.90
22666;DHT22;11499;49.486;11.104;2023-03-14T17:58:03;6.60;99.90
22666;DHT22;11499;49.486;11.104;2023-03-14T18:00:29;6.40;99.90
22666;DHT22;11499;49.486;11.104;2023-03-14T18:02:55;6.20;99.90
22666;DHT22;11499;49.486;11.104;2023-03-14T18:05:21;6.10;99.90
22666;DHT22;11499;49.486;11.104;2023-03-14T18:07:46;6.00;99.90
22666;DHT22;11499;49.486;11.104;2023-03-14T18:10:12;5.90;99.90
22666;DHT22;11499;49.486;11.104;2023-03-14T18:12:38;5.80;99.90
22666;DHT22;11499;49.486;11.104;2023-03-14T18:15:04;5.70;99.90
22666;DHT22;11499;49.486;11.104;2023-03-14T18:17:30;5.80;99.90